Time;durP1;ratioP1;P1;durP2;ratioP2;P2;SDS_P1;SDS_P2;PMS_P1;PMS_P2;Temp;Humidity;BMP_temperature;BMP_pressure;BME280_temperature;BME280_humidity;BME280_pressure;Samples;Min_cycle;Max_cycle;Signal;HPM_P1;HPM_P2
2022/05/26 06:02:13;;;;;;;6.82;5.78;;;;;;;;;;10590975;27;20496;-82
2022/05/26 06:07:15;;;;;;;6.28;4.57;;;;;;;;;;10592638;28;20048;-83
2022/05/26 06:12:16;;;;;;;12.40;6.22;;;;;;;;;;10597055;28;20035;-85
2022/05/26 06:17:17;;;;;;;9.82;6.47;;;;;;;;;;10595848;28;20031;-83
2022/05/26 06:22:20;;;;;;;9.07;6.22;;;;;;;;;;10597491;28;20020;-82
2022/05/26 06:38:20;;;;;;;11.57;6.65;;;;;;;;;;10522964;28;20108;-84
2022/05/26 06:43:21;;;;;;;5.82;4.63;;;;;;;;;;10548799;28;20385;-81
2022/05/26 06:48:22;;;;;;;8.70;5.63;;;;;;;;;;10547133;28;20056;-82
2022/05/26 06:53:23;;;;;;;9.77;7.20;;;;;;;;;;10550179;28;20028;-85
2022/05/26 06:58:26;;;;;;;5.18;3.85;;;;;;;;;;10547007;28;20123;-86
2022/05/26 07:03:27;;;;;;;9.68;6.47;;;;;;;;;;10573740;28;20482;-85
2022/05/26 07:08:30;;;;;;;11.18;6.05;;;;;;;;;;10586033;28;20020;-85
2022/05/26 07:13:31;;;;;;;10.90;6.95;;;;;;;;;;10581161;28;20043;-83
2022/05/26 07:18:32;;;;;;;8.27;5.35;;;;;;;;;;10562903;28;20051;-84
2022/05/26 07:23:34;;;;;;;10.65;6.25;;;;;;;;;;10570924;28;20053;-85
2022/05/26 07:28:35;;;;;;;9.57;6.90;;;;;;;;;;10566782;28;20017;-85
2022/05/26 07:33:36;;;;;;;11.20;6.18;;;;;;;;;;10560244;28;20050;-86
2022/05/26 07:43:58;;;;;;;7.95;5.47;;;;;;;;;;10563087;28;20028;-86
2022/05/26 07:48:59;;;;;;;10.75;7.80;;;;;;;;;;10560807;28;20482;-83
2022/05/26 07:54:00;;;;;;;10.82;7.15;;;;;;;;;;10561851;28;20028;-83
2022/05/26 07:59:01;;;;;;;12.30;7.72;;;;;;;;;;10573068;28;20546;-86
2022/05/26 08:04:05;;;;;;;9.45;6.95;;;;;;;;;;10570467;28;20020;-81
2022/05/26 08:09:06;;;;;;;10.55;7.15;;;;;;;;;;10555115;28;20106;-83
2022/05/26 08:14:07;;;;;;;8.52;6.55;;;;;;;;;;10557982;28;20036;-86
2022/05/26 08:19:09;;;;;;;11.70;7.35;;;;;;;;;;10560610;28;20032;-86
2022/05/26 08:24:10;;;;;;;7.72;6.97;;;;;;;;;;10564942;28;20047;-85
2022/05/26 08:29:11;;;;;;;8.82;6.82;;;;;;;;;;10561502;28;20023;-85
2022/05/26 08:34:12;;;;;;;10.20;6.90;;;;;;;;;;10562278;28;20048;-84
2022/05/26 08:39:13;;;;;;;11.13;6.40;;;;;;;;;;10567910;28;20394;-82
2022/05/26 08:44:26;;;;;;;8.77;5.43;;;;;;;;;;10566093;28;20024;-83
2022/05/26 08:49:31;;;;;;;11.35;6.47;;;;;;;;;;10566888;28;20055;-85
2022/05/26 08:54:36;;;;;;;8.68;5.43;;;;;;;;;;10566348;28;20028;-85
2022/05/26 08:59:40;;;;;;;10.93;6.60;;;;;;;;;;10561506;28;20093;-82
2022/05/26 09:04:41;;;;;;;8.07;5.28;;;;;;;;;;10561900;28;20109;-83
2022/05/26 09:15:07;;;;;;;9.88;5.88;;;;;;;;;;10557927;28;20506;-85
2022/05/26 09:20:29;;;;;;;11.07;5.47;;;;;;;;;;10551670;28;20031;-83
2022/05/26 09:25:36;;;;;;;7.72;5.40;;;;;;;;;;10555922;28;20034;-83
2022/05/26 09:30:37;;;;;;;7.72;4.80;;;;;;;;;;10553017;28;20053;-83
2022/05/26 09:35:38;;;;;;;6.95;4.80;;;;;;;;;;10557051;28;20020;-84
2022/05/26 09:40:41;;;;;;;5.65;4.05;;;;;;;;;;10561120;28;20078;-84
2022/05/26 09:45:42;;;;;;;5.07;4.07;;;;;;;;;;10556674;28;20035;-83
2022/05/26 09:50:45;;;;;;;8.02;4.70;;;;;;;;;;10550194;28;20028;-83
2022/05/26 09:55:49;;;;;;;6.75;5.00;;;;;;;;;;10545552;28;20020;-85
2022/05/26 10:00:50;;;;;;;5.65;3.75;;;;;;;;;;10547115;28;20080;-83
2022/05/26 10:06:08;;;;;;;6.82;4.60;;;;;;;;;;10555235;28;20473;-84
2022/05/26 10:11:12;;;;;;;7.00;4.50;;;;;;;;;;10547267;28;20054;-82
2022/05/26 10:16:20;;;;;;;6.57;4.30;;;;;;;;;;10551432;28;20110;-86
2022/05/26 10:21:37;;;;;;;7.25;4.80;;;;;;;;;;10546564;28;20058;-85
2022/05/26 10:26:56;;;;;;;7.72;5.03;;;;;;;;;;10547557;28;20084;-83
2022/05/26 10:31:58;;;;;;;7.57;4.80;;;;;;;;;;10546661;28;20024;-83
2022/05/26 10:37:18;;;;;;;6.82;5.18;;;;;;;;;;10546968;28;20020;-83
2022/05/26 10:42:36;;;;;;;8.48;5.22;;;;;;;;;;10545066;28;20027;-86
2022/05/26 10:47:39;;;;;;;8.65;4.25;;;;;;;;;;10555032;28;20031;-86
2022/05/26 10:52:49;;;;;;;5.75;4.10;;;;;;;;;;10558042;28;20024;-85
2022/05/26 10:58:00;;;;;;;7.70;4.97;;;;;;;;;;10553437;28;20122;-85
2022/05/26 11:03:11;;;;;;;4.97;4.30;;;;;;;;;;10556799;28;20031;-85
2022/05/26 11:08:12;;;;;;;;;;;;;;;;;;10580847;28;20024;-83
2022/05/26 11:13:21;;;;;;;7.22;4.18;;;;;;;;;;10556519;28;19904;-85
2022/05/26 11:18:37;;;;;;;8.32;4.57;;;;;;;;;;10558697;28;20539;-86
2022/05/26 11:23:41;;;;;;;8.57;4.90;;;;;;;;;;10562771;28;20102;-87
2022/05/26 11:28:48;;;;;;;7.40;3.97;;;;;;;;;;10557167;28;20081;-83
2022/05/26 11:39:17;;;;;;;5.47;3.67;;;;;;;;;;10556360;28;20028;-82
2022/05/26 11:44:37;;;;;;;8.53;4.00;;;;;;;;;;10556151;28;20024;-84
2022/05/26 11:49:44;;;;;;;6.55;4.10;;;;;;;;;;10557162;28;20032;-86
2022/05/26 11:55:04;;;;;;;7.32;4.43;;;;;;;;;;10554138;28;20024;-86
2022/05/26 12:00:20;;;;;;;7.05;4.15;;;;;;;;;;10555564;28;20047;-86
2022/05/26 12:05:31;;;;;;;5.40;3.75;;;;;;;;;;10550926;28;20020;-86
2022/05/26 12:47:46;;;;;;;5.72;4.05;;;;;;;;;;10328768;28;20035;-86
2022/05/26 13:49:43;;;;;;;5.57;3.17;;;;;;;;;;10345252;28;20042;-87
2022/05/26 13:55:12;;;;;;;;;;;;;;;;;;;;;
2022/05/26 14:51:48;;;;;;;5.55;2.50;;;;;;;;;;10477339;28;20052;-87
2022/05/26 19:08:54;;;;;;;4.53;1.52;;;;;;;;;;10539143;22;20086;-85
